« Back
NWS Peachtree City, Ga » Text Product » CSG Terminal Aerodrome Forecast


Printer-friendly Version
Current Version              Previous Versions:   1  2  3  4  5  6  7  8  9  

Terminal Aerodrome Forecast

598
FTUS42 KFFC 010537
TAFCSG
TAF
KCSG 010537Z 0106/0206 20006KT P6SM FEW015 BKN025
     FM010800 22004KT 5SM BR SCT008 BKN012
     FM011400 26004KT P6SM FEW040
     FM011800 27005KT P6SM SCT050
     FM012300 20003KT P6SM FEW250
     FM020200 00000KT P6SM FEW250=



USA.gov is the U.S. government's official web portal to all federal, state and local government web resources and services.